sensor_id;sensor_type;location;lat;lon;timestamp;temperature;humidity
18575;DHT22;9417;16.484;102.872;2023-04-24T00:01:24;24.50;97.00
18575;DHT22;9417;16.484;102.872;2023-04-24T00:03:32;24.50;97.70
18575;DHT22;9417;16.484;102.872;2023-04-24T00:05:39;24.50;97.30
18575;DHT22;9417;16.484;102.872;2023-04-24T00:07:47;24.50;97.40
18575;DHT22;9417;16.484;102.872;2023-04-24T00:09:57;24.40;97.70
18575;DHT22;9417;16.484;102.872;2023-04-24T00:12:04;24.30;98.70
18575;DHT22;9417;16.484;102.872;2023-04-24T00:14:14;24.30;98.70
18575;DHT22;9417;16.484;102.872;2023-04-24T00:16:21;24.30;98.90
18575;DHT22;9417;16.484;102.872;2023-04-24T00:18:29;24.40;99.30
18575;DHT22;9417;16.484;102.872;2023-04-24T00:20:36;24.60;99.10
18575;DHT22;9417;16.484;102.872;2023-04-24T00:22:44;24.60;98.90
18575;DHT22;9417;16.484;102.872;2023-04-24T00:24:52;24.60;98.20
18575;DHT22;9417;16.484;102.872;2023-04-24T00:26:59;24.70;98.20
18575;DHT22;9417;16.484;102.872;2023-04-24T00:29:07;24.70;97.70
18575;DHT22;9417;16.484;102.872;2023-04-24T00:31:16;24.70;97.30
18575;DHT22;9417;16.484;102.872;2023-04-24T00:33:23;24.80;97.60
18575;DHT22;9417;16.484;102.872;2023-04-24T00:35:31;24.80;97.80
18575;DHT22;9417;16.484;102.872;2023-04-24T00:37:38;24.90;98.50
18575;DHT22;9417;16.484;102.872;2023-04-24T00:39:46;24.90;98.40
18575;DHT22;9417;16.484;102.872;2023-04-24T00:41:53;24.90;97.80
18575;DHT22;9417;16.484;102.872;2023-04-24T00:44:00;24.90;96.90
18575;DHT22;9417;16.484;102.872;2023-04-24T00:46:07;25.00;96.80
18575;DHT22;9417;16.484;102.872;2023-04-24T00:48:17;25.10;97.20
18575;DHT22;9417;16.484;102.872;2023-04-24T00:50:25;25.00;97.40
18575;DHT22;9417;16.484;102.872;2023-04-24T00:52:33;25.00;97.20
18575;DHT22;9417;16.484;102.872;2023-04-24T00:54:40;25.00;97.20
18575;DHT22;9417;16.484;102.872;2023-04-24T00:56:48;25.00;96.50
18575;DHT22;9417;16.484;102.872;2023-04-24T00:58:56;25.00;96.60
18575;DHT22;9417;16.484;102.872;2023-04-24T01:01:05;25.00;96.80
18575;DHT22;9417;16.484;102.872;2023-04-24T01:03:13;25.10;96.80
18575;DHT22;9417;16.484;102.872;2023-04-24T01:05:23;25.20;96.40
18575;DHT22;9417;16.484;102.872;2023-04-24T01:07:31;25.20;96.40
18575;DHT22;9417;16.484;102.872;2023-04-24T01:09:39;25.30;96.10
18575;DHT22;9417;16.484;102.872;2023-04-24T01:11:47;25.30;96.10
18575;DHT22;9417;16.484;102.872;2023-04-24T01:13:55;25.40;96.00
18575;DHT22;9417;16.484;102.872;2023-04-24T01:16:03;25.40;95.80
18575;DHT22;9417;16.484;102.872;2023-04-24T01:18:11;25.50;95.80
18575;DHT22;9417;16.484;102.872;2023-04-24T01:20:18;25.60;95.30
18575;DHT22;9417;16.484;102.872;2023-04-24T01:22:27;25.60;94.80
18575;DHT22;9417;16.484;102.872;2023-04-24T01:24:35;25.60;93.80
18575;DHT22;9417;16.484;102.872;2023-04-24T01:26:42;25.60;93.60
18575;DHT22;9417;16.484;102.872;2023-04-24T01:28:50;25.70;94.40
18575;DHT22;9417;16.484;102.872;2023-04-24T01:30:58;25.70;95.00
18575;DHT22;9417;16.484;102.872;2023-04-24T01:33:06;25.70;94.90
18575;DHT22;9417;16.484;102.872;2023-04-24T01:35:14;25.70;94.30
18575;DHT22;9417;16.484;102.872;2023-04-24T01:37:21;25.70;93.90
18575;DHT22;9417;16.484;102.872;2023-04-24T01:39:30;25.70;94.30
18575;DHT22;9417;16.484;102.872;2023-04-24T01:41:38;25.80;94.50
18575;DHT22;9417;16.484;102.872;2023-04-24T01:43:45;25.80;96.60
18575;DHT22;9417;16.484;102.872;2023-04-24T01:45:52;25.90;95.70
18575;DHT22;9417;16.484;102.872;2023-04-24T01:48:01;25.90;95.70
18575;DHT22;9417;16.484;102.872;2023-04-24T01:50:09;26.00;95.60
18575;DHT22;9417;16.484;102.872;2023-04-24T01:52:17;26.00;94.60
18575;DHT22;9417;16.484;102.872;2023-04-24T01:54:24;26.00;94.10
18575;DHT22;9417;16.484;102.872;2023-04-24T01:56:34;26.00;93.40
18575;DHT22;9417;16.484;102.872;2023-04-24T01:58:42;25.90;92.40
18575;DHT22;9417;16.484;102.872;2023-04-24T02:00:50;25.90;92.20
18575;DHT22;9417;16.484;102.872;2023-04-24T02:02:57;26.00;91.50
18575;DHT22;9417;16.484;102.872;2023-04-24T02:05:07;26.00;91.70
18575;DHT22;9417;16.484;102.872;2023-04-24T02:07:15;26.00;90.90
18575;DHT22;9417;16.484;102.872;2023-04-24T02:09:23;26.10;90.50
18575;DHT22;9417;16.484;102.872;2023-04-24T02:11:30;26.20;90.10
18575;DHT22;9417;16.484;102.872;2023-04-24T02:13:39;26.30;90.50
18575;DHT22;9417;16.484;102.872;2023-04-24T02:15:47;26.30;90.00
18575;DHT22;9417;16.484;102.872;2023-04-24T02:17:54;26.50;89.70
18575;DHT22;9417;16.484;102.872;2023-04-24T02:20:01;26.60;91.00
18575;DHT22;9417;16.484;102.872;2023-04-24T02:22:09;26.70;89.50
18575;DHT22;9417;16.484;102.872;2023-04-24T02:24:17;26.80;88.70
18575;DHT22;9417;16.484;102.872;2023-04-24T02:26:24;26.90;88.80
18575;DHT22;9417;16.484;102.872;2023-04-24T02:28:32;26.90;88.40
18575;DHT22;9417;16.484;102.872;2023-04-24T02:30:41;27.00;88.20
18575;DHT22;9417;16.484;102.872;2023-04-24T02:32:48;27.10;86.90
18575;DHT22;9417;16.484;102.872;2023-04-24T02:34:56;27.20;86.00
18575;DHT22;9417;16.484;102.872;2023-04-24T02:37:03;27.20;83.30
18575;DHT22;9417;16.484;102.872;2023-04-24T02:39:12;27.30;82.90
18575;DHT22;9417;16.484;102.872;2023-04-24T02:41:21;27.30;82.40
18575;DHT22;9417;16.484;102.872;2023-04-24T02:43:28;27.40;82.10
18575;DHT22;9417;16.484;102.872;2023-04-24T02:45:35;27.40;82.40
18575;DHT22;9417;16.484;102.872;2023-04-24T02:47:45;27.50;82.30
18575;DHT22;9417;16.484;102.872;2023-04-24T02:49:52;27.60;82.40
18575;DHT22;9417;16.484;102.872;2023-04-24T02:52:00;27.60;81.70
18575;DHT22;9417;16.484;102.872;2023-04-24T02:54:07;27.60;81.40
18575;DHT22;9417;16.484;102.872;2023-04-24T02:56:15;27.70;81.20
18575;DHT22;9417;16.484;102.872;2023-04-24T02:58:23;27.70;81.40
18575;DHT22;9417;16.484;102.872;2023-04-24T03:00:30;27.80;81.50
18575;DHT22;9417;16.484;102.872;2023-04-24T03:02:38;27.80;81.40
18575;DHT22;9417;16.484;102.872;2023-04-24T03:04:47;27.90;80.70
18575;DHT22;9417;16.484;102.872;2023-04-24T03:06:56;27.90;80.90
18575;DHT22;9417;16.484;102.872;2023-04-24T03:09:03;28.00;81.00
18575;DHT22;9417;16.484;102.872;2023-04-24T03:11:11;28.00;81.00
18575;DHT22;9417;16.484;102.872;2023-04-24T03:13:18;28.10;80.90
18575;DHT22;9417;16.484;102.872;2023-04-24T03:15:26;28.10;81.40
18575;DHT22;9417;16.484;102.872;2023-04-24T03:17:34;28.20;81.30
18575;DHT22;9417;16.484;102.872;2023-04-24T03:19:42;28.20;81.40
18575;DHT22;9417;16.484;102.872;2023-04-24T03:21:51;28.30;81.30
18575;DHT22;9417;16.484;102.872;2023-04-24T03:23:58;28.30;80.90
18575;DHT22;9417;16.484;102.872;2023-04-24T03:26:06;28.40;80.70
18575;DHT22;9417;16.484;102.872;2023-04-24T03:28:19;28.50;80.50
18575;DHT22;9417;16.484;102.872;2023-04-24T03:30:39;28.50;79.90
18575;DHT22;9417;16.484;102.872;2023-04-24T03:32:47;28.60;79.20
18575;DHT22;9417;16.484;102.872;2023-04-24T03:35:00;28.60;78.50
18575;DHT22;9417;16.484;102.872;2023-04-24T03:37:09;28.60;78.00
18575;DHT22;9417;16.484;102.872;2023-04-24T03:39:22;28.60;77.80
18575;DHT22;9417;16.484;102.872;2023-04-24T03:41:31;28.70;77.30
18575;DHT22;9417;16.484;102.872;2023-04-24T03:43:49;28.70;77.50
18575;DHT22;9417;16.484;102.872;2023-04-24T03:45:56;28.70;77.30
18575;DHT22;9417;16.484;102.872;2023-04-24T03:48:07;28.70;77.20
18575;DHT22;9417;16.484;102.872;2023-04-24T03:50:14;28.70;76.80
18575;DHT22;9417;16.484;102.872;2023-04-24T03:52:23;28.70;76.30
18575;DHT22;9417;16.484;102.872;2023-04-24T03:54:31;28.80;76.30
18575;DHT22;9417;16.484;102.872;2023-04-24T03:56:38;28.80;76.30
18575;DHT22;9417;16.484;102.872;2023-04-24T03:58:46;28.80;76.50
18575;DHT22;9417;16.484;102.872;2023-04-24T04:00:53;28.80;76.30
18575;DHT22;9417;16.484;102.872;2023-04-24T04:03:20;28.90;76.00
18575;DHT22;9417;16.484;102.872;2023-04-24T04:05:28;28.90;75.40
18575;DHT22;9417;16.484;102.872;2023-04-24T04:07:37;28.90;75.40
18575;DHT22;9417;16.484;102.872;2023-04-24T04:09:44;28.90;74.60
18575;DHT22;9417;16.484;102.872;2023-04-24T04:11:52;28.90;75.00
18575;DHT22;9417;16.484;102.872;2023-04-24T04:14:00;29.00;75.20
18575;DHT22;9417;16.484;102.872;2023-04-24T04:16:09;29.00;75.20
18575;DHT22;9417;16.484;102.872;2023-04-24T04:18:17;29.10;75.30
18575;DHT22;9417;16.484;102.872;2023-04-24T04:20:25;29.10;75.40
18575;DHT22;9417;16.484;102.872;2023-04-24T04:22:33;29.20;75.30
18575;DHT22;9417;16.484;102.872;2023-04-24T04:24:45;29.20;74.30
18575;DHT22;9417;16.484;102.872;2023-04-24T04:26:53;29.30;73.50
18575;DHT22;9417;16.484;102.872;2023-04-24T04:29:10;29.30;73.40
18575;DHT22;9417;16.484;102.872;2023-04-24T04:31:21;29.40;73.40
18575;DHT22;9417;16.484;102.872;2023-04-24T04:33:31;29.40;71.80
18575;DHT22;9417;16.484;102.872;2023-04-24T04:35:38;29.50;71.00
18575;DHT22;9417;16.484;102.872;2023-04-24T04:37:46;29.40;71.60
18575;DHT22;9417;16.484;102.872;2023-04-24T04:40:15;29.50;71.10
18575;DHT22;9417;16.484;102.872;2023-04-24T04:42:33;29.50;70.80
18575;DHT22;9417;16.484;102.872;2023-04-24T04:44:40;29.60;70.10
18575;DHT22;9417;16.484;102.872;2023-04-24T04:46:55;29.60;69.20
18575;DHT22;9417;16.484;102.872;2023-04-24T04:49:07;29.70;69.50
18575;DHT22;9417;16.484;102.872;2023-04-24T04:51:15;29.80;70.00
18575;DHT22;9417;16.484;102.872;2023-04-24T04:53:23;30.00;70.40
18575;DHT22;9417;16.484;102.872;2023-04-24T04:55:32;30.10;69.70
18575;DHT22;9417;16.484;102.872;2023-04-24T04:57:48;30.20;69.90
18575;DHT22;9417;16.484;102.872;2023-04-24T04:59:55;30.20;68.80
18575;DHT22;9417;16.484;102.872;2023-04-24T05:02:16;30.20;68.80
18575;DHT22;9417;16.484;102.872;2023-04-24T05:04:23;30.30;69.10
18575;DHT22;9417;16.484;102.872;2023-04-24T05:06:31;30.40;68.20
18575;DHT22;9417;16.484;102.872;2023-04-24T05:08:40;30.40;68.00
18575;DHT22;9417;16.484;102.872;2023-04-24T05:11:00;30.40;66.00
18575;DHT22;9417;16.484;102.872;2023-04-24T05:13:08;30.40;66.30
18575;DHT22;9417;16.484;102.872;2023-04-24T05:15:17;30.40;66.50
18575;DHT22;9417;16.484;102.872;2023-04-24T05:17:24;30.40;66.20
18575;DHT22;9417;16.484;102.872;2023-04-24T05:19:34;30.40;66.50
18575;DHT22;9417;16.484;102.872;2023-04-24T05:21:43;30.50;66.40
18575;DHT22;9417;16.484;102.872;2023-04-24T05:23:51;30.70;66.80
18575;DHT22;9417;16.484;102.872;2023-04-24T05:26:29;30.90;66.10
18575;DHT22;9417;16.484;102.872;2023-04-24T05:28:36;31.10;66.40
18575;DHT22;9417;16.484;102.872;2023-04-24T05:30:48;31.10;62.80
18575;DHT22;9417;16.484;102.872;2023-04-24T05:32:57;31.10;63.70
18575;DHT22;9417;16.484;102.872;2023-04-24T05:35:07;31.30;64.60
18575;DHT22;9417;16.484;102.872;2023-04-24T05:37:15;31.40;64.20
18575;DHT22;9417;16.484;102.872;2023-04-24T05:39:22;31.40;63.50
18575;DHT22;9417;16.484;102.872;2023-04-24T05:41:32;31.40;62.30
18575;DHT22;9417;16.484;102.872;2023-04-24T05:43:40;31.50;63.60
18575;DHT22;9417;16.484;102.872;2023-04-24T05:45:47;31.40;64.60
18575;DHT22;9417;16.484;102.872;2023-04-24T05:47:55;31.50;62.20
18575;DHT22;9417;16.484;102.872;2023-04-24T05:50:02;31.60;60.50
18575;DHT22;9417;16.484;102.872;2023-04-24T05:52:10;31.50;60.40
18575;DHT22;9417;16.484;102.872;2023-04-24T05:54:18;31.70;62.20
18575;DHT22;9417;16.484;102.872;2023-04-24T05:56:26;31.70;62.00
18575;DHT22;9417;16.484;102.872;2023-04-24T05:58:36;31.90;61.90
18575;DHT22;9417;16.484;102.872;2023-04-24T06:00:45;31.90;61.50
18575;DHT22;9417;16.484;102.872;2023-04-24T06:02:53;31.90;61.80
18575;DHT22;9417;16.484;102.872;2023-04-24T06:05:01;31.70;61.40
18575;DHT22;9417;16.484;102.872;2023-04-24T06:07:10;31.40;61.10
18575;DHT22;9417;16.484;102.872;2023-04-24T06:09:19;31.30;62.90
18575;DHT22;9417;16.484;102.872;2023-04-24T06:11:26;31.20;64.10
18575;DHT22;9417;16.484;102.872;2023-04-24T06:13:35;31.00;65.40
18575;DHT22;9417;16.484;102.872;2023-04-24T06:16:01;30.90;68.20
18575;DHT22;9417;16.484;102.872;2023-04-24T06:18:12;30.80;70.60
18575;DHT22;9417;16.484;102.872;2023-04-24T06:20:19;30.60;70.50
18575;DHT22;9417;16.484;102.872;2023-04-24T06:22:27;30.60;74.20
18575;DHT22;9417;16.484;102.872;2023-04-24T06:24:35;30.50;73.70
18575;DHT22;9417;16.484;102.872;2023-04-24T06:26:42;30.40;72.00
18575;DHT22;9417;16.484;102.872;2023-04-24T06:28:52;30.30;73.10
18575;DHT22;9417;16.484;102.872;2023-04-24T06:31:00;30.30;74.10
18575;DHT22;9417;16.484;102.872;2023-04-24T06:33:08;30.20;73.70
18575;DHT22;9417;16.484;102.872;2023-04-24T06:35:24;30.30;73.40
18575;DHT22;9417;16.484;102.872;2023-04-24T06:37:32;30.30;73.40
18575;DHT22;9417;16.484;102.872;2023-04-24T06:39:39;30.30;73.90
18575;DHT22;9417;16.484;102.872;2023-04-24T06:41:47;30.40;72.40
18575;DHT22;9417;16.484;102.872;2023-04-24T06:43:58;30.30;71.60
18575;DHT22;9417;16.484;102.872;2023-04-24T06:46:05;30.40;73.70
18575;DHT22;9417;16.484;102.872;2023-04-24T06:48:12;30.50;74.40
18575;DHT22;9417;16.484;102.872;2023-04-24T06:50:20;30.50;74.20
18575;DHT22;9417;16.484;102.872;2023-04-24T06:52:27;30.50;71.60
18575;DHT22;9417;16.484;102.872;2023-04-24T06:54:37;30.50;74.00
18575;DHT22;9417;16.484;102.872;2023-04-24T06:56:44;30.50;74.10
18575;DHT22;9417;16.484;102.872;2023-04-24T06:58:52;30.60;72.80
18575;DHT22;9417;16.484;102.872;2023-04-24T07:01:01;30.60;73.30
18575;DHT22;9417;16.484;102.872;2023-04-24T07:03:09;30.70;72.90
18575;DHT22;9417;16.484;102.872;2023-04-24T07:05:16;30.70;70.50
18575;DHT22;9417;16.484;102.872;2023-04-24T07:07:25;30.60;70.90
18575;DHT22;9417;16.484;102.872;2023-04-24T07:09:33;30.60;71.40
18575;DHT22;9417;16.484;102.872;2023-04-24T07:11:44;30.70;71.70
18575;DHT22;9417;16.484;102.872;2023-04-24T07:13:51;30.70;73.40
18575;DHT22;9417;16.484;102.872;2023-04-24T07:16:00;30.80;72.40
18575;DHT22;9417;16.484;102.872;2023-04-24T07:18:08;30.80;72.20
18575;DHT22;9417;16.484;102.872;2023-04-24T07:20:15;31.00;72.10
18575;DHT22;9417;16.484;102.872;2023-04-24T07:22:23;31.20;71.60
18575;DHT22;9417;16.484;102.872;2023-04-24T07:24:30;31.20;71.30
18575;DHT22;9417;16.484;102.872;2023-04-24T07:26:38;31.30;71.50
18575;DHT22;9417;16.484;102.872;2023-04-24T07:28:46;31.20;70.80
18575;DHT22;9417;16.484;102.872;2023-04-24T07:30:53;31.20;70.20
18575;DHT22;9417;16.484;102.872;2023-04-24T07:33:02;31.10;72.10
18575;DHT22;9417;16.484;102.872;2023-04-24T07:35:10;31.10;70.80
18575;DHT22;9417;16.484;102.872;2023-04-24T07:37:17;31.00;70.40
18575;DHT22;9417;16.484;102.872;2023-04-24T07:39:25;30.90;70.20
18575;DHT22;9417;16.484;102.872;2023-04-24T07:41:34;30.70;70.80
18575;DHT22;9417;16.484;102.872;2023-04-24T07:43:41;30.60;70.90
18575;DHT22;9417;16.484;102.872;2023-04-24T07:45:48;30.50;71.60
18575;DHT22;9417;16.484;102.872;2023-04-24T07:47:56;30.50;71.40
18575;DHT22;9417;16.484;102.872;2023-04-24T07:50:06;30.50;71.20
18575;DHT22;9417;16.484;102.872;2023-04-24T07:52:13;30.50;71.70
18575;DHT22;9417;16.484;102.872;2023-04-24T07:54:20;30.60;72.40
18575;DHT22;9417;16.484;102.872;2023-04-24T07:56:28;30.70;71.50
18575;DHT22;9417;16.484;102.872;2023-04-24T07:58:36;30.80;71.40
18575;DHT22;9417;16.484;102.872;2023-04-24T08:00:43;31.00;70.20
18575;DHT22;9417;16.484;102.872;2023-04-24T08:02:51;31.10;69.90
18575;DHT22;9417;16.484;102.872;2023-04-24T08:04:58;31.10;69.30
18575;DHT22;9417;16.484;102.872;2023-04-24T08:07:08;31.10;68.50
18575;DHT22;9417;16.484;102.872;2023-04-24T08:09:16;31.20;69.70
18575;DHT22;9417;16.484;102.872;2023-04-24T08:11:24;31.20;67.20
18575;DHT22;9417;16.484;102.872;2023-04-24T08:13:31;31.30;68.20
18575;DHT22;9417;16.484;102.872;2023-04-24T08:15:39;31.40;68.80
18575;DHT22;9417;16.484;102.872;2023-04-24T08:17:46;31.60;68.20
18575;DHT22;9417;16.484;102.872;2023-04-24T08:19:54;31.70;67.30
18575;DHT22;9417;16.484;102.872;2023-04-24T08:22:08;31.70;66.60
18575;DHT22;9417;16.484;102.872;2023-04-24T08:24:15;31.60;66.40
18575;DHT22;9417;16.484;102.872;2023-04-24T08:26:22;31.50;67.40
18575;DHT22;9417;16.484;102.872;2023-04-24T08:28:30;31.40;67.30
18575;DHT22;9417;16.484;102.872;2023-04-24T08:30:38;31.30;67.70
18575;DHT22;9417;16.484;102.872;2023-04-24T08:32:45;31.20;69.10
18575;DHT22;9417;16.484;102.872;2023-04-24T08:34:53;31.10;70.00
18575;DHT22;9417;16.484;102.872;2023-04-24T08:37:01;31.00;69.20
18575;DHT22;9417;16.484;102.872;2023-04-24T08:39:11;30.90;70.00
18575;DHT22;9417;16.484;102.872;2023-04-24T08:41:19;30.90;70.10
18575;DHT22;9417;16.484;102.872;2023-04-24T08:43:27;30.90;70.20
18575;DHT22;9417;16.484;102.872;2023-04-24T08:45:35;30.90;69.60
18575;DHT22;9417;16.484;102.872;2023-04-24T08:47:43;30.90;69.00
18575;DHT22;9417;16.484;102.872;2023-04-24T08:49:51;31.00;68.60
18575;DHT22;9417;16.484;102.872;2023-04-24T08:51:58;31.10;67.50
18575;DHT22;9417;16.484;102.872;2023-04-24T08:54:07;31.20;67.30
18575;DHT22;9417;16.484;102.872;2023-04-24T08:56:16;31.30;66.40
18575;DHT22;9417;16.484;102.872;2023-04-24T08:58:24;31.30;65.80
18575;DHT22;9417;16.484;102.872;2023-04-24T09:00:32;31.40;66.90
18575;DHT22;9417;16.484;102.872;2023-04-24T09:02:42;31.50;66.40
18575;DHT22;9417;16.484;102.872;2023-04-24T09:04:50;31.50;65.10
18575;DHT22;9417;16.484;102.872;2023-04-24T09:06:58;31.60;65.20
18575;DHT22;9417;16.484;102.872;2023-04-24T09:09:05;31.60;66.20
18575;DHT22;9417;16.484;102.872;2023-04-24T09:11:14;31.60;65.40
18575;DHT22;9417;16.484;102.872;2023-04-24T09:13:22;31.60;65.40
18575;DHT22;9417;16.484;102.872;2023-04-24T09:15:30;31.60;64.90
18575;DHT22;9417;16.484;102.872;2023-04-24T09:17:38;31.70;65.30
18575;DHT22;9417;16.484;102.872;2023-04-24T09:19:45;31.60;64.80
18575;DHT22;9417;16.484;102.872;2023-04-24T09:21:53;31.60;64.80
18575;DHT22;9417;16.484;102.872;2023-04-24T09:24:01;31.60;65.30
18575;DHT22;9417;16.484;102.872;2023-04-24T09:26:10;31.60;65.10
18575;DHT22;9417;16.484;102.872;2023-04-24T09:28:26;31.70;65.30
18575;DHT22;9417;16.484;102.872;2023-04-24T09:30:34;31.70;65.50
18575;DHT22;9417;16.484;102.872;2023-04-24T09:32:41;31.80;65.60
18575;DHT22;9417;16.484;102.872;2023-04-24T09:34:49;31.90;65.40
18575;DHT22;9417;16.484;102.872;2023-04-24T09:36:56;31.90;65.20
18575;DHT22;9417;16.484;102.872;2023-04-24T09:39:04;31.90;65.10
18575;DHT22;9417;16.484;102.872;2023-04-24T09:41:14;31.90;65.00
18575;DHT22;9417;16.484;102.872;2023-04-24T09:43:23;31.80;64.80
18575;DHT22;9417;16.484;102.872;2023-04-24T09:45:36;31.80;64.60
18575;DHT22;9417;16.484;102.872;2023-04-24T09:47:44;31.80;64.80
18575;DHT22;9417;16.484;102.872;2023-04-24T09:49:51;31.80;65.50
18575;DHT22;9417;16.484;102.872;2023-04-24T09:52:05;31.70;66.00
18575;DHT22;9417;16.484;102.872;2023-04-24T09:54:15;31.70;66.00
18575;DHT22;9417;16.484;102.872;2023-04-24T09:56:22;31.70;65.30
18575;DHT22;9417;16.484;102.872;2023-04-24T09:58:36;31.70;65.10
18575;DHT22;9417;16.484;102.872;2023-04-24T10:00:43;31.70;65.50
18575;DHT22;9417;16.484;102.872;2023-04-24T10:02:58;31.70;65.40
18575;DHT22;9417;16.484;102.872;2023-04-24T10:05:06;31.70;65.20
18575;DHT22;9417;16.484;102.872;2023-04-24T10:07:15;31.70;65.20
18575;DHT22;9417;16.484;102.872;2023-04-24T10:09:24;31.70;65.00
18575;DHT22;9417;16.484;102.872;2023-04-24T10:11:31;31.70;64.90
18575;DHT22;9417;16.484;102.872;2023-04-24T10:13:40;31.70;64.80
18575;DHT22;9417;16.484;102.872;2023-04-24T10:15:49;31.70;65.10
18575;DHT22;9417;16.484;102.872;2023-04-24T10:17:58;31.60;65.20
18575;DHT22;9417;16.484;102.872;2023-04-24T10:20:07;31.60;65.20
18575;DHT22;9417;16.484;102.872;2023-04-24T10:22:15;31.60;65.10
18575;DHT22;9417;16.484;102.872;2023-04-24T10:24:24;31.60;64.90
18575;DHT22;9417;16.484;102.872;2023-04-24T10:26:32;31.50;64.80
18575;DHT22;9417;16.484;102.872;2023-04-24T10:28:42;31.50;65.20
18575;DHT22;9417;16.484;102.872;2023-04-24T10:30:51;31.50;65.40
18575;DHT22;9417;16.484;102.872;2023-04-24T10:33:01;31.50;66.00
18575;DHT22;9417;16.484;102.872;2023-04-24T10:35:10;31.40;65.30
18575;DHT22;9417;16.484;102.872;2023-04-24T10:37:18;31.40;65.50
18575;DHT22;9417;16.484;102.872;2023-04-24T10:39:26;31.30;66.10
18575;DHT22;9417;16.484;102.872;2023-04-24T10:41:33;31.30;66.20
18575;DHT22;9417;16.484;102.872;2023-04-24T10:43:46;31.30;66.20
18575;DHT22;9417;16.484;102.872;2023-04-24T10:46:02;31.20;66.30
18575;DHT22;9417;16.484;102.872;2023-04-24T10:48:10;31.20;66.00
18575;DHT22;9417;16.484;102.872;2023-04-24T10:50:20;31.10;65.70
18575;DHT22;9417;16.484;102.872;2023-04-24T10:52:45;31.10;65.60
18575;DHT22;9417;16.484;102.872;2023-04-24T10:54:53;31.00;64.90
18575;DHT22;9417;16.484;102.872;2023-04-24T10:57:26;31.00;65.30
18575;DHT22;9417;16.484;102.872;2023-04-24T10:59:37;31.00;65.80
18575;DHT22;9417;16.484;102.872;2023-04-24T11:01:53;30.90;65.90
18575;DHT22;9417;16.484;102.872;2023-04-24T11:04:02;30.90;65.60
18575;DHT22;9417;16.484;102.872;2023-04-24T11:06:10;30.80;65.80
18575;DHT22;9417;16.484;102.872;2023-04-24T11:08:25;30.80;65.90
18575;DHT22;9417;16.484;102.872;2023-04-24T11:10:33;30.70;65.80
18575;DHT22;9417;16.484;102.872;2023-04-24T11:12:40;30.70;66.20
18575;DHT22;9417;16.484;102.872;2023-04-24T11:15:05;30.70;66.40
18575;DHT22;9417;16.484;102.872;2023-04-24T11:17:29;30.60;66.30
18575;DHT22;9417;16.484;102.872;2023-04-24T11:19:39;30.60;66.90
18575;DHT22;9417;16.484;102.872;2023-04-24T11:21:48;30.50;67.40
18575;DHT22;9417;16.484;102.872;2023-04-24T11:23:56;30.50;67.70
18575;DHT22;9417;16.484;102.872;2023-04-24T11:26:22;30.40;67.70
18575;DHT22;9417;16.484;102.872;2023-04-24T11:28:35;30.40;67.40
18575;DHT22;9417;16.484;102.872;2023-04-24T11:30:46;30.40;67.90
18575;DHT22;9417;16.484;102.872;2023-04-24T11:32:54;30.30;68.00
18575;DHT22;9417;16.484;102.872;2023-04-24T11:35:02;30.30;68.10
18575;DHT22;9417;16.484;102.872;2023-04-24T11:37:10;30.30;67.90
18575;DHT22;9417;16.484;102.872;2023-04-24T11:39:18;30.20;69.30
18575;DHT22;9417;16.484;102.872;2023-04-24T11:41:25;30.20;68.50
18575;DHT22;9417;16.484;102.872;2023-04-24T11:43:33;30.10;67.70
18575;DHT22;9417;16.484;102.872;2023-04-24T11:45:50;30.10;67.20
18575;DHT22;9417;16.484;102.872;2023-04-24T11:47:59;30.10;69.90
18575;DHT22;9417;16.484;102.872;2023-04-24T11:50:08;30.10;71.50
18575;DHT22;9417;16.484;102.872;2023-04-24T11:52:16;30.00;71.20
18575;DHT22;9417;16.484;102.872;2023-04-24T11:54:24;29.90;70.70
18575;DHT22;9417;16.484;102.872;2023-04-24T11:56:31;29.90;71.20
18575;DHT22;9417;16.484;102.872;2023-04-24T11:58:39;29.90;72.00
18575;DHT22;9417;16.484;102.872;2023-04-24T12:00:54;29.80;72.20
18575;DHT22;9417;16.484;102.872;2023-04-24T12:03:08;29.80;72.00
18575;DHT22;9417;16.484;102.872;2023-04-24T12:05:21;29.80;71.20
18575;DHT22;9417;16.484;102.872;2023-04-24T12:07:29;29.80;72.50
18575;DHT22;9417;16.484;102.872;2023-04-24T12:09:48;29.70;74.20
18575;DHT22;9417;16.484;102.872;2023-04-24T12:11:56;29.60;75.00
18575;DHT22;9417;16.484;102.872;2023-04-24T12:14:11;29.50;75.60
18575;DHT22;9417;16.484;102.872;2023-04-24T12:16:18;29.50;76.10
18575;DHT22;9417;16.484;102.872;2023-04-24T12:18:27;29.40;76.40
18575;DHT22;9417;16.484;102.872;2023-04-24T12:20:36;29.40;76.90
18575;DHT22;9417;16.484;102.872;2023-04-24T12:22:47;29.30;77.40
18575;DHT22;9417;16.484;102.872;2023-04-24T12:25:02;29.20;78.00
18575;DHT22;9417;16.484;102.872;2023-04-24T12:27:21;29.10;77.80
18575;DHT22;9417;16.484;102.872;2023-04-24T12:29:28;29.10;78.10
18575;DHT22;9417;16.484;102.872;2023-04-24T12:31:36;29.10;77.30
18575;DHT22;9417;16.484;102.872;2023-04-24T12:33:45;29.10;75.90
18575;DHT22;9417;16.484;102.872;2023-04-24T12:35:52;29.10;75.20
18575;DHT22;9417;16.484;102.872;2023-04-24T12:38:06;29.20;74.90
18575;DHT22;9417;16.484;102.872;2023-04-24T12:40:15;29.20;75.90
18575;DHT22;9417;16.484;102.872;2023-04-24T12:42:27;29.20;77.00
18575;DHT22;9417;16.484;102.872;2023-04-24T12:44:34;29.10;77.50
18575;DHT22;9417;16.484;102.872;2023-04-24T12:47:07;29.10;77.60
18575;DHT22;9417;16.484;102.872;2023-04-24T12:49:16;29.10;77.70
18575;DHT22;9417;16.484;102.872;2023-04-24T12:51:24;29.00;78.10
18575;DHT22;9417;16.484;102.872;2023-04-24T12:53:31;29.00;76.30
18575;DHT22;9417;16.484;102.872;2023-04-24T12:55:38;29.00;75.30
18575;DHT22;9417;16.484;102.872;2023-04-24T12:57:45;29.00;75.00
18575;DHT22;9417;16.484;102.872;2023-04-24T12:59:54;29.10;76.10
18575;DHT22;9417;16.484;102.872;2023-04-24T13:02:02;29.10;77.90
18575;DHT22;9417;16.484;102.872;2023-04-24T13:04:10;29.00;78.50
18575;DHT22;9417;16.484;102.872;2023-04-24T13:06:19;29.00;78.30
18575;DHT22;9417;16.484;102.872;2023-04-24T13:08:26;29.00;78.10
18575;DHT22;9417;16.484;102.872;2023-04-24T13:10:33;29.00;77.70
18575;DHT22;9417;16.484;102.872;2023-04-24T13:12:41;29.00;77.10
18575;DHT22;9417;16.484;102.872;2023-04-24T13:14:50;29.00;76.80
18575;DHT22;9417;16.484;102.872;2023-04-24T13:16:58;29.00;76.80
18575;DHT22;9417;16.484;102.872;2023-04-24T13:19:05;29.00;76.90
18575;DHT22;9417;16.484;102.872;2023-04-24T13:21:13;29.00;76.90
18575;DHT22;9417;16.484;102.872;2023-04-24T13:23:23;29.00;77.00